sensor_id;sensor_type;location;lat;lon;timestamp;temperature;humidity
34646;DHT22;20857;47.808;12.482;2023-04-06T00:00:33;-1.60;99.90
34646;DHT22;20857;47.808;12.482;2023-04-06T00:02:59;-1.60;99.90
34646;DHT22;20857;47.808;12.482;2023-04-06T00:05:24;-1.70;99.90
34646;DHT22;20857;47.808;12.482;2023-04-06T00:07:50;-1.80;99.90
34646;DHT22;20857;47.808;12.482;2023-04-06T00:10:16;-1.80;99.90
34646;DHT22;20857;47.808;12.482;2023-04-06T00:12:42;-2.00;99.90
34646;DHT22;20857;47.808;12.482;2023-04-06T00:15:07;-2.10;99.90
34646;DHT22;20857;47.808;12.482;2023-04-06T00:17:33;-2.30;99.90
34646;DHT22;20857;47.808;12.482;2023-04-06T00:19:59;-2.30;99.90
34646;DHT22;20857;47.808;12.482;2023-04-06T00:22:24;-2.30;99.90
34646;DHT22;20857;47.808;12.482;2023-04-06T00:24:50;-2.30;99.90
34646;DHT22;20857;47.808;12.482;2023-04-06T00:27:15;-2.40;99.90
34646;DHT22;20857;47.808;12.482;2023-04-06T00:29:41;-2.30;99.90
34646;DHT22;20857;47.808;12.482;2023-04-06T00:32:06;-2.40;99.90
34646;DHT22;20857;47.808;12.482;2023-04-06T00:34:32;-2.30;99.90
34646;DHT22;20857;47.808;12.482;2023-04-06T00:36:57;-2.30;99.90
34646;DHT22;20857;47.808;12.482;2023-04-06T00:39:23;-2.30;99.90
34646;DHT22;20857;47.808;12.482;2023-04-06T00:41:50;-2.40;99.90
34646;DHT22;20857;47.808;12.482;2023-04-06T00:44:16;-2.40;99.90
34646;DHT22;20857;47.808;12.482;2023-04-06T00:46:41;-2.30;99.90
34646;DHT22;20857;47.808;12.482;2023-04-06T00:49:07;-2.30;99.90
34646;DHT22;20857;47.808;12.482;2023-04-06T00:51:32;-2.20;99.90
34646;DHT22;20857;47.808;12.482;2023-04-06T00:53:58;-2.30;99.90
34646;DHT22;20857;47.808;12.482;2023-04-06T00:56:23;-2.20;99.90
34646;DHT22;20857;47.808;12.482;2023-04-06T00:58:49;-2.20;99.90
34646;DHT22;20857;47.808;12.482;2023-04-06T01:01:15;-2.20;99.90
34646;DHT22;20857;47.808;12.482;2023-04-06T01:03:40;-2.20;99.90
34646;DHT22;20857;47.808;12.482;2023-04-06T01:06:07;-2.20;99.90
34646;DHT22;20857;47.808;12.482;2023-04-06T01:08:33;-2.20;99.90
34646;DHT22;20857;47.808;12.482;2023-04-06T01:10:59;-2.10;99.90
34646;DHT22;20857;47.808;12.482;2023-04-06T01:13:26;-2.20;99.90
34646;DHT22;20857;47.808;12.482;2023-04-06T01:15:52;-2.20;99.90
34646;DHT22;20857;47.808;12.482;2023-04-06T01:18:18;-2.20;99.90
34646;DHT22;20857;47.808;12.482;2023-04-06T01:20:43;-2.40;99.90
34646;DHT22;20857;47.808;12.482;2023-04-06T01:23:09;-2.40;99.90
34646;DHT22;20857;47.808;12.482;2023-04-06T01:25:34;-2.50;99.90
34646;DHT22;20857;47.808;12.482;2023-04-06T01:28:00;-2.50;99.90
34646;DHT22;20857;47.808;12.482;2023-04-06T01:30:25;-2.50;99.90
34646;DHT22;20857;47.808;12.482;2023-04-06T01:32:51;-2.60;99.90
34646;DHT22;20857;47.808;12.482;2023-04-06T01:35:18;-2.60;99.90
34646;DHT22;20857;47.808;12.482;2023-04-06T01:37:43;-2.70;99.90
34646;DHT22;20857;47.808;12.482;2023-04-06T01:40:09;-2.60;99.90
34646;DHT22;20857;47.808;12.482;2023-04-06T01:42:34;-2.60;99.90
34646;DHT22;20857;47.808;12.482;2023-04-06T01:45:00;-2.60;99.90
34646;DHT22;20857;47.808;12.482;2023-04-06T01:47:25;-2.60;99.90
34646;DHT22;20857;47.808;12.482;2023-04-06T01:49:53;-2.50;99.90
34646;DHT22;20857;47.808;12.482;2023-04-06T01:52:20;-2.60;99.90
34646;DHT22;20857;47.808;12.482;2023-04-06T01:54:46;-2.60;99.90
34646;DHT22;20857;47.808;12.482;2023-04-06T01:57:11;-2.80;99.90
34646;DHT22;20857;47.808;12.482;2023-04-06T01:59:37;-2.80;99.90
34646;DHT22;20857;47.808;12.482;2023-04-06T02:02:02;-2.90;99.90
34646;DHT22;20857;47.808;12.482;2023-04-06T02:04:28;-3.00;99.90
34646;DHT22;20857;47.808;12.482;2023-04-06T02:06:53;-2.90;99.90
34646;DHT22;20857;47.808;12.482;2023-04-06T02:09:19;-2.90;99.90
34646;DHT22;20857;47.808;12.482;2023-04-06T02:11:45;-2.90;99.90
34646;DHT22;20857;47.808;12.482;2023-04-06T02:14:11;-2.90;99.90
34646;DHT22;20857;47.808;12.482;2023-04-06T02:16:36;-2.90;99.90
34646;DHT22;20857;47.808;12.482;2023-04-06T02:19:02;-2.90;99.90
34646;DHT22;20857;47.808;12.482;2023-04-06T02:21:27;-2.90;99.90
34646;DHT22;20857;47.808;12.482;2023-04-06T02:23:53;-2.90;99.90
34646;DHT22;20857;47.808;12.482;2023-04-06T02:26:19;-3.00;99.90
34646;DHT22;20857;47.808;12.482;2023-04-06T02:28:45;-3.00;99.90
34646;DHT22;20857;47.808;12.482;2023-04-06T02:31:11;-2.90;99.90
34646;DHT22;20857;47.808;12.482;2023-04-06T02:33:37;-2.90;99.90
34646;DHT22;20857;47.808;12.482;2023-04-06T02:36:02;-2.80;99.90
34646;DHT22;20857;47.808;12.482;2023-04-06T02:38:28;-2.90;99.90
34646;DHT22;20857;47.808;12.482;2023-04-06T02:40:54;-2.90;99.90
34646;DHT22;20857;47.808;12.482;2023-04-06T02:43:19;-2.90;99.90
34646;DHT22;20857;47.808;12.482;2023-04-06T02:45:45;-3.00;99.90
34646;DHT22;20857;47.808;12.482;2023-04-06T02:48:10;-3.10;99.90
34646;DHT22;20857;47.808;12.482;2023-04-06T02:50:36;-3.20;99.90
34646;DHT22;20857;47.808;12.482;2023-04-06T02:53:01;-3.10;99.90
34646;DHT22;20857;47.808;12.482;2023-04-06T02:55:27;-3.00;99.90
34646;DHT22;20857;47.808;12.482;2023-04-06T02:57:52;-3.00;99.90
34646;DHT22;20857;47.808;12.482;2023-04-06T03:00:18;-3.00;99.90
34646;DHT22;20857;47.808;12.482;2023-04-06T03:02:44;-3.00;99.90
34646;DHT22;20857;47.808;12.482;2023-04-06T03:05:09;-3.10;99.90
34646;DHT22;20857;47.808;12.482;2023-04-06T03:07:35;-3.10;99.90
34646;DHT22;20857;47.808;12.482;2023-04-06T03:10:00;-3.20;99.90
34646;DHT22;20857;47.808;12.482;2023-04-06T03:12:26;-3.20;99.90
34646;DHT22;20857;47.808;12.482;2023-04-06T03:14:51;-3.30;99.90
34646;DHT22;20857;47.808;12.482;2023-04-06T03:17:17;-3.40;99.90
34646;DHT22;20857;47.808;12.482;2023-04-06T03:19:42;-3.30;99.90
34646;DHT22;20857;47.808;12.482;2023-04-06T03:22:08;-3.40;99.90
34646;DHT22;20857;47.808;12.482;2023-04-06T03:24:33;-3.40;99.90
34646;DHT22;20857;47.808;12.482;2023-04-06T03:26:59;-3.30;99.90
34646;DHT22;20857;47.808;12.482;2023-04-06T03:29:25;-3.30;99.90
34646;DHT22;20857;47.808;12.482;2023-04-06T03:31:50;-3.30;99.90
34646;DHT22;20857;47.808;12.482;2023-04-06T03:34:16;-3.30;99.90
34646;DHT22;20857;47.808;12.482;2023-04-06T03:36:41;-2.50;99.90
34646;DHT22;20857;47.808;12.482;2023-04-06T03:39:07;-3.30;99.90
34646;DHT22;20857;47.808;12.482;2023-04-06T03:41:32;-3.20;99.90
34646;DHT22;20857;47.808;12.482;2023-04-06T03:43:58;-3.20;99.90
34646;DHT22;20857;47.808;12.482;2023-04-06T03:46:23;-3.20;99.90
34646;DHT22;20857;47.808;12.482;2023-04-06T03:48:49;-3.20;99.90
34646;DHT22;20857;47.808;12.482;2023-04-06T03:51:14;-3.20;99.90
34646;DHT22;20857;47.808;12.482;2023-04-06T03:53:40;-3.30;99.90
34646;DHT22;20857;47.808;12.482;2023-04-06T03:56:06;-3.30;99.90
34646;DHT22;20857;47.808;12.482;2023-04-06T03:58:31;-3.40;99.90
34646;DHT22;20857;47.808;12.482;2023-04-06T04:00:57;-3.50;99.90
34646;DHT22;20857;47.808;12.482;2023-04-06T04:03:22;-3.60;99.90
34646;DHT22;20857;47.808;12.482;2023-04-06T04:05:53;-1.80;99.90
34646;DHT22;20857;47.808;12.482;2023-04-06T04:08:18;-3.60;99.90
34646;DHT22;20857;47.808;12.482;2023-04-06T04:10:44;-3.50;99.90
34646;DHT22;20857;47.808;12.482;2023-04-06T04:13:09;-3.50;99.90
34646;DHT22;20857;47.808;12.482;2023-04-06T04:15:35;-3.40;99.90
34646;DHT22;20857;47.808;12.482;2023-04-06T04:18:00;-3.40;99.90
34646;DHT22;20857;47.808;12.482;2023-04-06T04:20:26;-3.40;99.90
34646;DHT22;20857;47.808;12.482;2023-04-06T04:22:51;-3.40;99.90
34646;DHT22;20857;47.808;12.482;2023-04-06T04:25:17;-3.40;99.90
34646;DHT22;20857;47.808;12.482;2023-04-06T04:27:42;-3.40;99.90
34646;DHT22;20857;47.808;12.482;2023-04-06T04:30:08;-3.40;99.90
34646;DHT22;20857;47.808;12.482;2023-04-06T04:32:33;-3.50;99.90
34646;DHT22;20857;47.808;12.482;2023-04-06T04:34:59;-3.40;99.90
34646;DHT22;20857;47.808;12.482;2023-04-06T04:37:25;-3.50;99.90
34646;DHT22;20857;47.808;12.482;2023-04-06T04:39:50;-3.50;99.90
34646;DHT22;20857;47.808;12.482;2023-04-06T04:42:16;-3.50;99.90
34646;DHT22;20857;47.808;12.482;2023-04-06T04:44:41;-3.40;99.90
34646;DHT22;20857;47.808;12.482;2023-04-06T04:47:07;-3.40;99.90
34646;DHT22;20857;47.808;12.482;2023-04-06T04:49:32;-3.40;99.90
34646;DHT22;20857;47.808;12.482;2023-04-06T04:51:58;-3.40;99.90
34646;DHT22;20857;47.808;12.482;2023-04-06T04:54:23;-1.80;99.90
34646;DHT22;20857;47.808;12.482;2023-04-06T04:56:49;-3.30;99.90
34646;DHT22;20857;47.808;12.482;2023-04-06T04:59:15;-3.10;99.90
34646;DHT22;20857;47.808;12.482;2023-04-06T05:01:41;-3.10;99.90
34646;DHT22;20857;47.808;12.482;2023-04-06T05:04:07;-3.10;99.90
34646;DHT22;20857;47.808;12.482;2023-04-06T05:06:32;-3.00;99.90
34646;DHT22;20857;47.808;12.482;2023-04-06T05:08:58;-2.90;99.90
34646;DHT22;20857;47.808;12.482;2023-04-06T05:11:23;-2.80;99.90
34646;DHT22;20857;47.808;12.482;2023-04-06T05:13:49;-1.90;99.90
34646;DHT22;20857;47.808;12.482;2023-04-06T05:16:14;-2.70;99.90
34646;DHT22;20857;47.808;12.482;2023-04-06T05:18:40;-1.20;99.90
34646;DHT22;20857;47.808;12.482;2023-04-06T05:21:06;-2.50;99.90
34646;DHT22;20857;47.808;12.482;2023-04-06T05:23:31;-2.60;99.90
34646;DHT22;20857;47.808;12.482;2023-04-06T05:25:57;-2.50;99.90
34646;DHT22;20857;47.808;12.482;2023-04-06T05:28:22;-2.40;99.90
34646;DHT22;20857;47.808;12.482;2023-04-06T05:30:48;-2.40;99.90
34646;DHT22;20857;47.808;12.482;2023-04-06T05:33:13;-2.10;99.90
34646;DHT22;20857;47.808;12.482;2023-04-06T05:35:39;-2.20;99.90
34646;DHT22;20857;47.808;12.482;2023-04-06T05:38:07;-2.10;99.90
34646;DHT22;20857;47.808;12.482;2023-04-06T05:40:32;-2.10;99.90
34646;DHT22;20857;47.808;12.482;2023-04-06T05:42:58;-2.10;99.90
34646;DHT22;20857;47.808;12.482;2023-04-06T05:45:23;-2.00;99.90
34646;DHT22;20857;47.808;12.482;2023-04-06T05:47:49;-2.00;99.90
34646;DHT22;20857;47.808;12.482;2023-04-06T05:50:15;-1.80;99.90
34646;DHT22;20857;47.808;12.482;2023-04-06T05:52:40;-1.80;99.90
34646;DHT22;20857;47.808;12.482;2023-04-06T05:55:08;-1.80;99.90
34646;DHT22;20857;47.808;12.482;2023-04-06T05:57:34;-1.70;99.90
34646;DHT22;20857;47.808;12.482;2023-04-06T06:00:00;-1.60;99.90
34646;DHT22;20857;47.808;12.482;2023-04-06T06:02:25;-1.50;99.90
34646;DHT22;20857;47.808;12.482;2023-04-06T06:04:51;-1.40;99.90
34646;DHT22;20857;47.808;12.482;2023-04-06T06:07:16;-1.30;99.90
34646;DHT22;20857;47.808;12.482;2023-04-06T06:09:42;-1.20;99.90
34646;DHT22;20857;47.808;12.482;2023-04-06T06:12:07;-1.10;99.90
34646;DHT22;20857;47.808;12.482;2023-04-06T06:14:33;-1.10;99.90
34646;DHT22;20857;47.808;12.482;2023-04-06T06:16:59;-0.80;99.90
34646;DHT22;20857;47.808;12.482;2023-04-06T06:19:25;-0.80;99.90
34646;DHT22;20857;47.808;12.482;2023-04-06T06:21:50;-0.70;99.90
34646;DHT22;20857;47.808;12.482;2023-04-06T06:24:16;-0.60;99.90
34646;DHT22;20857;47.808;12.482;2023-04-06T06:26:41;-0.60;99.90
34646;DHT22;20857;47.808;12.482;2023-04-06T06:29:08;-0.40;99.90
34646;DHT22;20857;47.808;12.482;2023-04-06T06:31:33;-0.30;99.90
34646;DHT22;20857;47.808;12.482;2023-04-06T06:33:59;-0.20;99.90
34646;DHT22;20857;47.808;12.482;2023-04-06T06:36:25;0.00;99.90
34646;DHT22;20857;47.808;12.482;2023-04-06T06:38:51;0.10;99.90
34646;DHT22;20857;47.808;12.482;2023-04-06T06:41:17;0.20;99.90
34646;DHT22;20857;47.808;12.482;2023-04-06T06:43:42;0.40;99.90
34646;DHT22;20857;47.808;12.482;2023-04-06T06:46:08;0.60;99.90
34646;DHT22;20857;47.808;12.482;2023-04-06T06:48:33;0.60;99.90
34646;DHT22;20857;47.808;12.482;2023-04-06T06:50:59;0.70;99.90
34646;DHT22;20857;47.808;12.482;2023-04-06T06:53:24;0.80;99.90
34646;DHT22;20857;47.808;12.482;2023-04-06T06:55:50;0.90;99.90
34646;DHT22;20857;47.808;12.482;2023-04-06T06:58:17;1.00;99.90
34646;DHT22;20857;47.808;12.482;2023-04-06T07:00:43;1.10;99.90
34646;DHT22;20857;47.808;12.482;2023-04-06T07:03:08;1.20;99.90
34646;DHT22;20857;47.808;12.482;2023-04-06T07:05:34;1.30;99.90
34646;DHT22;20857;47.808;12.482;2023-04-06T07:07:59;1.50;99.90
34646;DHT22;20857;47.808;12.482;2023-04-06T07:10:26;1.60;99.90
34646;DHT22;20857;47.808;12.482;2023-04-06T07:12:51;1.90;99.90
34646;DHT22;20857;47.808;12.482;2023-04-06T07:15:17;1.90;99.90
34646;DHT22;20857;47.808;12.482;2023-04-06T07:17:43;2.00;99.90
34646;DHT22;20857;47.808;12.482;2023-04-06T07:20:10;2.20;99.90
34646;DHT22;20857;47.808;12.482;2023-04-06T07:22:36;2.30;99.90
34646;DHT22;20857;47.808;12.482;2023-04-06T07:25:01;2.50;99.90
34646;DHT22;20857;47.808;12.482;2023-04-06T07:27:27;2.60;99.90
34646;DHT22;20857;47.808;12.482;2023-04-06T07:29:52;2.80;99.90
34646;DHT22;20857;47.808;12.482;2023-04-06T07:32:18;3.10;99.90
34646;DHT22;20857;47.808;12.482;2023-04-06T07:34:43;3.20;99.90
34646;DHT22;20857;47.808;12.482;2023-04-06T07:37:10;3.40;99.90
34646;DHT22;20857;47.808;12.482;2023-04-06T07:39:35;3.40;99.90
34646;DHT22;20857;47.808;12.482;2023-04-06T07:42:01;3.50;99.90
34646;DHT22;20857;47.808;12.482;2023-04-06T07:44:27;3.50;99.90
34646;DHT22;20857;47.808;12.482;2023-04-06T07:46:52;3.60;99.90
34646;DHT22;20857;47.808;12.482;2023-04-06T07:49:18;3.70;99.90
34646;DHT22;20857;47.808;12.482;2023-04-06T07:51:43;4.00;99.90
34646;DHT22;20857;47.808;12.482;2023-04-06T07:54:09;4.10;99.90
34646;DHT22;20857;47.808;12.482;2023-04-06T07:56:34;4.30;99.90
34646;DHT22;20857;47.808;12.482;2023-04-06T07:59:00;4.40;99.90
34646;DHT22;20857;47.808;12.482;2023-04-06T08:01:26;4.40;99.90
34646;DHT22;20857;47.808;12.482;2023-04-06T08:03:52;4.60;99.90
34646;DHT22;20857;47.808;12.482;2023-04-06T08:06:17;4.70;99.90
34646;DHT22;20857;47.808;12.482;2023-04-06T08:08:43;4.90;99.90
34646;DHT22;20857;47.808;12.482;2023-04-06T08:11:09;5.00;99.90
34646;DHT22;20857;47.808;12.482;2023-04-06T08:13:34;5.00;99.90
34646;DHT22;20857;47.808;12.482;2023-04-06T08:16:01;5.10;99.90
34646;DHT22;20857;47.808;12.482;2023-04-06T08:18:26;5.10;99.90
34646;DHT22;20857;47.808;12.482;2023-04-06T08:20:52;5.10;99.90
34646;DHT22;20857;47.808;12.482;2023-04-06T08:23:17;5.30;99.90
34646;DHT22;20857;47.808;12.482;2023-04-06T08:25:43;5.40;99.90
34646;DHT22;20857;47.808;12.482;2023-04-06T08:28:08;5.40;99.90
34646;DHT22;20857;47.808;12.482;2023-04-06T08:30:34;5.50;99.90
34646;DHT22;20857;47.808;12.482;2023-04-06T08:33:00;5.80;98.80
34646;DHT22;20857;47.808;12.482;2023-04-06T08:35:26;5.70;98.50
34646;DHT22;20857;47.808;12.482;2023-04-06T08:37:52;5.80;97.90
34646;DHT22;20857;47.808;12.482;2023-04-06T08:40:17;5.90;98.00
34646;DHT22;20857;47.808;12.482;2023-04-06T08:42:49;6.00;98.10
34646;DHT22;20857;47.808;12.482;2023-04-06T08:45:15;6.20;97.90
34646;DHT22;20857;47.808;12.482;2023-04-06T08:47:41;6.20;97.00
34646;DHT22;20857;47.808;12.482;2023-04-06T08:50:07;6.20;97.40
34646;DHT22;20857;47.808;12.482;2023-04-06T08:52:33;6.40;96.70
34646;DHT22;20857;47.808;12.482;2023-04-06T08:55:02;6.40;96.00
34646;DHT22;20857;47.808;12.482;2023-04-06T08:57:27;6.50;98.30
34646;DHT22;20857;47.808;12.482;2023-04-06T08:59:54;6.70;98.50
34646;DHT22;20857;47.808;12.482;2023-04-06T09:02:20;6.70;96.70
34646;DHT22;20857;47.808;12.482;2023-04-06T09:04:47;6.90;94.90
34646;DHT22;20857;47.808;12.482;2023-04-06T09:07:13;6.80;94.50
34646;DHT22;20857;47.808;12.482;2023-04-06T09:09:39;6.80;93.80
34646;DHT22;20857;47.808;12.482;2023-04-06T09:12:08;6.90;94.90
34646;DHT22;20857;47.808;12.482;2023-04-06T09:14:37;6.80;95.30
34646;DHT22;20857;47.808;12.482;2023-04-06T09:17:04;6.80;95.30
34646;DHT22;20857;47.808;12.482;2023-04-06T09:19:29;6.90;95.20
34646;DHT22;20857;47.808;12.482;2023-04-06T09:22:04;7.00;93.40
34646;DHT22;20857;47.808;12.482;2023-04-06T09:24:52;7.10;94.70
34646;DHT22;20857;47.808;12.482;2023-04-06T09:27:18;7.10;95.30
34646;DHT22;20857;47.808;12.482;2023-04-06T09:30:02;7.30;94.90
34646;DHT22;20857;47.808;12.482;2023-04-06T09:32:28;7.20;95.20
34646;DHT22;20857;47.808;12.482;2023-04-06T09:34:53;7.40;97.20
34646;DHT22;20857;47.808;12.482;2023-04-06T09:37:19;7.60;95.90
34646;DHT22;20857;47.808;12.482;2023-04-06T09:39:45;7.50;93.50
34646;DHT22;20857;47.808;12.482;2023-04-06T09:42:12;7.60;95.20
34646;DHT22;20857;47.808;12.482;2023-04-06T09:44:48;7.60;95.30
34646;DHT22;20857;47.808;12.482;2023-04-06T09:47:14;7.70;96.70
34646;DHT22;20857;47.808;12.482;2023-04-06T09:49:40;7.50;92.60
34646;DHT22;20857;47.808;12.482;2023-04-06T09:52:07;7.60;94.80
34646;DHT22;20857;47.808;12.482;2023-04-06T09:54:34;7.60;94.10
34646;DHT22;20857;47.808;12.482;2023-04-06T09:59:30;7.70;94.70
34646;DHT22;20857;47.808;12.482;2023-04-06T10:01:58;7.90;96.10
34646;DHT22;20857;47.808;12.482;2023-04-06T10:06:49;8.10;94.90
34646;DHT22;20857;47.808;12.482;2023-04-06T10:09:18;8.00;95.20
34646;DHT22;20857;47.808;12.482;2023-04-06T10:11:44;8.00;92.30
34646;DHT22;20857;47.808;12.482;2023-04-06T10:14:09;7.90;92.30
34646;DHT22;20857;47.808;12.482;2023-04-06T10:16:37;7.90;93.30
34646;DHT22;20857;47.808;12.482;2023-04-06T10:19:09;8.20;93.00
34646;DHT22;20857;47.808;12.482;2023-04-06T10:21:35;8.10;93.10
34646;DHT22;20857;47.808;12.482;2023-04-06T10:24:01;7.80;93.00
34646;DHT22;20857;47.808;12.482;2023-04-06T10:26:27;7.80;92.40
34646;DHT22;20857;47.808;12.482;2023-04-06T10:28:53;7.80;93.20
34646;DHT22;20857;47.808;12.482;2023-04-06T10:31:26;7.90;95.40
34646;DHT22;20857;47.808;12.482;2023-04-06T10:33:56;7.80;93.80
34646;DHT22;20857;47.808;12.482;2023-04-06T10:36:22;7.90;91.60
34646;DHT22;20857;47.808;12.482;2023-04-06T10:41:44;8.00;92.70
34646;DHT22;20857;47.808;12.482;2023-04-06T10:44:19;8.10;92.90
34646;DHT22;20857;47.808;12.482;2023-04-06T10:46:55;8.40;94.00
34646;DHT22;20857;47.808;12.482;2023-04-06T10:49:20;8.50;93.90
34646;DHT22;20857;47.808;12.482;2023-04-06T10:51:50;8.50;92.70
34646;DHT22;20857;47.808;12.482;2023-04-06T10:54:16;8.50;92.50
34646;DHT22;20857;47.808;12.482;2023-04-06T10:56:42;8.60;91.90
34646;DHT22;20857;47.808;12.482;2023-04-06T10:59:07;8.70;91.70
34646;DHT22;20857;47.808;12.482;2023-04-06T11:01:33;8.80;91.60
34646;DHT22;20857;47.808;12.482;2023-04-06T11:03:58;9.20;93.20
34646;DHT22;20857;47.808;12.482;2023-04-06T11:06:25;9.40;91.50
34646;DHT22;20857;47.808;12.482;2023-04-06T11:08:52;9.40;91.10
34646;DHT22;20857;47.808;12.482;2023-04-06T11:11:18;9.60;90.90
34646;DHT22;20857;47.808;12.482;2023-04-06T11:16:14;9.70;90.50
34646;DHT22;20857;47.808;12.482;2023-04-06T11:19:13;9.80;89.90
34646;DHT22;20857;47.808;12.482;2023-04-06T11:21:36;10.00;91.50
34646;DHT22;20857;47.808;12.482;2023-04-06T11:26:30;10.20;89.70
34646;DHT22;20857;47.808;12.482;2023-04-06T11:28:56;10.20;93.00
34646;DHT22;20857;47.808;12.482;2023-04-06T11:31:25;10.20;91.60
34646;DHT22;20857;47.808;12.482;2023-04-06T11:33:55;10.10;90.10
34646;DHT22;20857;47.808;12.482;2023-04-06T11:36:20;10.00;91.30
34646;DHT22;20857;47.808;12.482;2023-04-06T11:38:46;9.70;90.30
34646;DHT22;20857;47.808;12.482;2023-04-06T11:41:11;9.30;88.00
34646;DHT22;20857;47.808;12.482;2023-04-06T11:43:37;9.10;88.60
34646;DHT22;20857;47.808;12.482;2023-04-06T11:46:03;8.60;87.20
34646;DHT22;20857;47.808;12.482;2023-04-06T11:48:29;8.50;88.00
34646;DHT22;20857;47.808;12.482;2023-04-06T11:50:58;8.60;88.20
34646;DHT22;20857;47.808;12.482;2023-04-06T11:53:29;8.80;88.60
34646;DHT22;20857;47.808;12.482;2023-04-06T11:55:55;9.40;88.00
34646;DHT22;20857;47.808;12.482;2023-04-06T11:58:21;9.90;91.50
34646;DHT22;20857;47.808;12.482;2023-04-06T12:00:46;10.20;89.20
34646;DHT22;20857;47.808;12.482;2023-04-06T12:03:12;10.20;88.70
34646;DHT22;20857;47.808;12.482;2023-04-06T12:05:38;10.40;89.50
34646;DHT22;20857;47.808;12.482;2023-04-06T12:08:03;10.70;88.50
34646;DHT22;20857;47.808;12.482;2023-04-06T12:10:29;10.80;88.10
34646;DHT22;20857;47.808;12.482;2023-04-06T12:12:54;10.90;88.70
34646;DHT22;20857;47.808;12.482;2023-04-06T12:15:20;10.70;87.10
34646;DHT22;20857;47.808;12.482;2023-04-06T12:17:46;10.60;84.70
34646;DHT22;20857;47.808;12.482;2023-04-06T12:20:12;10.80;86.70
34646;DHT22;20857;47.808;12.482;2023-04-06T12:22:39;11.20;85.80
34646;DHT22;20857;47.808;12.482;2023-04-06T12:25:05;11.40;85.50
34646;DHT22;20857;47.808;12.482;2023-04-06T12:27:32;11.80;88.10
34646;DHT22;20857;47.808;12.482;2023-04-06T12:29:57;11.20;88.60
34646;DHT22;20857;47.808;12.482;2023-04-06T12:32:23;11.20;84.80
34646;DHT22;20857;47.808;12.482;2023-04-06T12:34:48;10.70;84.10
34646;DHT22;20857;47.808;12.482;2023-04-06T12:37:15;10.30;84.60
34646;DHT22;20857;47.808;12.482;2023-04-06T12:39:44;9.80;86.10
34646;DHT22;20857;47.808;12.482;2023-04-06T12:42:10;10.00;86.70
34646;DHT22;20857;47.808;12.482;2023-04-06T12:44:37;10.80;87.20
34646;DHT22;20857;47.808;12.482;2023-04-06T12:47:03;11.10;83.30
34646;DHT22;20857;47.808;12.482;2023-04-06T12:49:28;11.50;86.60
34646;DHT22;20857;47.808;12.482;2023-04-06T12:51:55;12.20;81.20
34646;DHT22;20857;47.808;12.482;2023-04-06T12:54:21;12.60;80.60
34646;DHT22;20857;47.808;12.482;2023-04-06T12:56:46;13.10;79.60
34646;DHT22;20857;47.808;12.482;2023-04-06T12:59:12;13.20;81.00
34646;DHT22;20857;47.808;12.482;2023-04-06T13:01:38;14.00;78.50
34646;DHT22;20857;47.808;12.482;2023-04-06T13:04:03;13.70;80.20
34646;DHT22;20857;47.808;12.482;2023-04-06T13:06:28;13.40;81.40
34646;DHT22;20857;47.808;12.482;2023-04-06T13:08:55;13.00;79.20
34646;DHT22;20857;47.808;12.482;2023-04-06T13:11:21;12.80;79.40
34646;DHT22;20857;47.808;12.482;2023-04-06T13:13:49;13.60;78.40
34646;DHT22;20857;47.808;12.482;2023-04-06T13:16:14;14.50;81.30
34646;DHT22;20857;47.808;12.482;2023-04-06T13:18:40;13.30;78.50
34646;DHT22;20857;47.808;12.482;2023-04-06T13:21:06;12.50;79.00
34646;DHT22;20857;47.808;12.482;2023-04-06T13:23:32;12.00;80.70
34646;DHT22;20857;47.808;12.482;2023-04-06T13:26:01;12.10;84.50
34646;DHT22;20857;47.808;12.482;2023-04-06T13:28:27;13.30;81.60
34646;DHT22;20857;47.808;12.482;2023-04-06T13:30:53;14.60;82.80
34646;DHT22;20857;47.808;12.482;2023-04-06T13:33:19;15.40;76.60
34646;DHT22;20857;47.808;12.482;2023-04-06T13:35:44;13.90;80.60
34646;DHT22;20857;47.808;12.482;2023-04-06T13:38:10;12.90;81.50
34646;DHT22;20857;47.808;12.482;2023-04-06T13:40:38;12.30;79.40
34646;DHT22;20857;47.808;12.482;2023-04-06T13:43:04;12.30;81.70
34646;DHT22;20857;47.808;12.482;2023-04-06T13:45:29;13.80;80.30
34646;DHT22;20857;47.808;12.482;2023-04-06T13:47:55;14.50;77.50
34646;DHT22;20857;47.808;12.482;2023-04-06T13:50:20;15.10;77.60
34646;DHT22;20857;47.808;12.482;2023-04-06T13:52:46;16.00;75.00
34646;DHT22;20857;47.808;12.482;2023-04-06T13:55:11;16.50;75.80
34646;DHT22;20857;47.808;12.482;2023-04-06T13:57:37;16.80;74.90
34646;DHT22;20857;47.808;12.482;2023-04-06T14:00:03;16.80;75.20
34646;DHT22;20857;47.808;12.482;2023-04-06T14:02:29;16.60;75.10
34646;DHT22;20857;47.808;12.482;2023-04-06T14:04:54;16.30;76.70
34646;DHT22;20857;47.808;12.482;2023-04-06T14:07:20;16.30;72.50
34646;DHT22;20857;47.808;12.482;2023-04-06T14:09:46;15.90;76.00
34646;DHT22;20857;47.808;12.482;2023-04-06T14:12:11;15.70;73.60
34646;DHT22;20857;47.808;12.482;2023-04-06T14:14:37;15.10;76.20
34646;DHT22;20857;47.808;12.482;2023-04-06T14:17:02;14.90;74.30
34646;DHT22;20857;47.808;12.482;2023-04-06T14:19:28;14.20;75.90
34646;DHT22;20857;47.808;12.482;2023-04-06T14:21:53;13.70;74.70
34646;DHT22;20857;47.808;12.482;2023-04-06T14:24:19;13.40;76.10
34646;DHT22;20857;47.808;12.482;2023-04-06T14:26:45;13.00;77.70
34646;DHT22;20857;47.808;12.482;2023-04-06T14:29:11;13.10;77.30
34646;DHT22;20857;47.808;12.482;2023-04-06T14:31:37;12.60;77.70
34646;DHT22;20857;47.808;12.482;2023-04-06T14:34:02;12.50;78.60
34646;DHT22;20857;47.808;12.482;2023-04-06T14:36:29;12.40;77.20
34646;DHT22;20857;47.808;12.482;2023-04-06T14:39:01;12.40;77.20
34646;DHT22;20857;47.808;12.482;2023-04-06T14:41:27;12.20;77.80
34646;DHT22;20857;47.808;12.482;2023-04-06T14:43:52;11.80;78.80
34646;DHT22;20857;47.808;12.482;2023-04-06T14:46:18;11.20;82.60
34646;DHT22;20857;47.808;12.482;2023-04-06T14:48:44;10.80;80.50
34646;DHT22;20857;47.808;12.482;2023-04-06T14:51:10;10.50;79.40
34646;DHT22;20857;47.808;12.482;2023-04-06T14:53:36;10.50;80.90
34646;DHT22;20857;47.808;12.482;2023-04-06T14:56:02;10.40;79.80
34646;DHT22;20857;47.808;12.482;2023-04-06T14:58:27;10.40;81.80
34646;DHT22;20857;47.808;12.482;2023-04-06T15:00:56;10.50;82.10
34646;DHT22;20857;47.808;12.482;2023-04-06T15:03:23;10.70;83.80
34646;DHT22;20857;47.808;12.482;2023-04-06T15:05:51;10.90;82.00
34646;DHT22;20857;47.808;12.482;2023-04-06T15:08:16;10.80;80.40
34646;DHT22;20857;47.808;12.482;2023-04-06T15:10:42;10.60;81.50
34646;DHT22;20857;47.808;12.482;2023-04-06T15:13:07;10.60;81.40
34646;DHT22;20857;47.808;12.482;2023-04-06T15:15:33;10.60;82.20
34646;DHT22;20857;47.808;12.482;2023-04-06T15:17:59;10.90;82.50
34646;DHT22;20857;47.808;12.482;2023-04-06T15:20:27;11.20;82.40
34646;DHT22;20857;47.808;12.482;2023-04-06T15:22:53;12.00;79.80
34646;DHT22;20857;47.808;12.482;2023-04-06T15:25:18;12.60;78.60